createdAt,value
2022-11-30T00:02:06.932Z,33.10
2022-11-30T00:07:11.008Z,32.63
2022-11-30T00:12:13.367Z,33.28
2022-11-30T00:17:15.831Z,32.53
2022-11-30T00:22:19.485Z,31.10
2022-11-30T00:27:21.892Z,33.55
2022-11-30T00:32:24.554Z,32.67
2022-11-30T00:37:28.277Z,34.73
2022-11-30T00:42:30.646Z,33.80
2022-11-30T00:47:33.063Z,36.25
2022-11-30T00:52:36.811Z,38.03
2022-11-30T00:57:39.192Z,35.33
2022-11-30T01:02:41.630Z,34.88
2022-11-30T01:07:45.484Z,37.17
2022-11-30T01:12:47.858Z,40.70
2022-11-30T01:17:50.224Z,41.03
2022-11-30T01:22:55.516Z,41.33
2022-11-30T01:27:57.922Z,41.58
2022-11-30T01:33:02.663Z,39.38
2022-11-30T01:38:06.425Z,39.08
2022-11-30T01:43:11.058Z,41.58
2022-11-30T01:48:13.413Z,36.30
2022-11-30T01:53:17.114Z,36.10
2022-11-30T01:58:25.167Z,31.95
2022-11-30T02:03:33.129Z,36.35
2022-11-30T02:08:37.215Z,30.27
2022-11-30T02:13:45.752Z,28.77
2022-11-30T02:18:52.705Z,33.33
2022-11-30T02:24:19.304Z,27.13
2022-11-30T02:29:23.804Z,31.15
2022-11-30T02:34:27.753Z,35.60
2022-11-30T02:39:30.150Z,34.47
2022-11-30T02:44:33.864Z,40.95
2022-11-30T02:49:40.583Z,40.17
2022-11-30T02:54:43.101Z,43.63
2022-11-30T02:59:46.824Z,46.83
2022-11-30T03:04:49.335Z,52.50
2022-11-30T03:09:51.858Z,50.97
2022-11-30T03:14:55.785Z,50.38
2022-11-30T03:19:58.213Z,50.00
2022-11-30T03:25:01.603Z,51.85
2022-11-30T03:30:06.117Z,50.78
2022-11-30T03:35:09.061Z,50.85
2022-11-30T03:40:12.421Z,50.25
2022-11-30T03:45:16.325Z,50.65
2022-11-30T03:50:18.686Z,50.63
2022-11-30T03:55:21.087Z,49.88
2022-11-30T04:00:24.813Z,51.38
2022-11-30T04:05:27.241Z,54.08
2022-11-30T04:10:29.586Z,50.15
2022-11-30T04:15:33.262Z,49.00
2022-11-30T04:20:40.211Z,51.15
2022-11-30T04:25:43.108Z,49.92
2022-11-30T04:30:47.161Z,51.45
2022-11-30T04:35:50.493Z,51.33
2022-11-30T04:40:53.147Z,50.47
2022-11-30T04:45:56.930Z,48.50
2022-11-30T04:51:01.121Z,51.40
2022-11-30T04:56:05.642Z,49.50
2022-11-30T05:01:09.435Z,49.05
2022-11-30T05:06:11.780Z,50.50
2022-11-30T05:11:14.201Z,52.92
2022-11-30T05:16:17.890Z,53.50
2022-11-30T05:21:20.270Z,51.88
2022-11-30T05:26:22.620Z,50.83
2022-11-30T05:31:26.401Z,52.17
2022-11-30T05:36:28.762Z,51.85
2022-11-30T05:41:31.392Z,50.33
2022-11-30T05:46:38.345Z,54.23
2022-11-30T05:51:43.235Z,51.58
2022-11-30T05:56:47.954Z,57.67
2022-11-30T06:01:55.636Z,57.10
2022-11-30T06:06:58.097Z,58.65
2022-11-30T06:12:00.528Z,58.95
2022-11-30T06:17:04.714Z,61.92
2022-11-30T06:22:07.065Z,58.17
2022-11-30T06:27:09.486Z,61.63
2022-11-30T06:32:13.198Z,54.30
2022-11-30T06:37:15.607Z,57.22
2022-11-30T06:42:19.651Z,57.40
2022-11-30T06:47:23.401Z,59.42
2022-11-30T06:52:26.192Z,56.45
2022-11-30T06:57:28.996Z,57.13
2022-11-30T07:02:32.797Z,57.73
2022-11-30T07:07:36.260Z,53.95
2022-11-30T07:12:38.669Z,55.53
2022-11-30T07:17:42.457Z,55.92
2022-11-30T07:22:44.808Z,56.22
2022-11-30T07:27:47.192Z,55.88
2022-11-30T07:32:50.922Z,58.72
2022-11-30T07:37:53.434Z,55.28
2022-11-30T07:42:56.001Z,55.25
2022-11-30T07:48:00.817Z,54.78
2022-11-30T07:53:03.219Z,56.25
2022-11-30T07:58:05.647Z,56.45
2022-11-30T08:03:09.352Z,54.53
2022-11-30T08:08:11.725Z,55.50
2022-11-30T08:13:14.185Z,52.53
2022-11-30T08:18:17.906Z,49.65
2022-11-30T08:23:20.317Z,46.35
2022-11-30T08:28:22.686Z,47.10
2022-11-30T08:33:30.550Z,45.50
2022-11-30T08:38:33.210Z,43.45
2022-11-30T08:43:35.829Z,40.72
2022-11-30T08:48:39.577Z,38.83
2022-11-30T08:53:42.769Z,36.00
2022-11-30T08:58:45.352Z,35.60
2022-11-30T09:03:49.785Z,34.13
2022-11-30T09:08:52.792Z,32.17
2022-11-30T09:13:56.101Z,32.83
2022-11-30T09:18:59.878Z,28.35
2022-11-30T09:24:02.363Z,25.15
2022-11-30T09:29:04.871Z,20.95
2022-11-30T09:34:11.326Z,17.38
2022-11-30T09:39:13.693Z,16.90
2022-11-30T09:44:21.310Z,15.90
2022-11-30T09:49:25.945Z,17.13
2022-11-30T09:54:35.392Z,18.50
2022-11-30T09:59:38.798Z,19.00
2022-11-30T10:04:42.531Z,16.60
2022-11-30T10:10:15.937Z,18.27
2022-11-30T10:15:17.817Z,17.35
2022-11-30T10:20:26.223Z,15.38
2022-11-30T10:25:30.239Z,12.55
2022-11-30T10:30:34.246Z,14.05
2022-11-30T10:35:38.533Z,13.15
2022-11-30T10:40:45.021Z,12.65
2022-11-30T10:45:48.949Z,13.60
2022-11-30T10:50:53.098Z,15.57
2022-11-30T10:56:00.971Z,14.20
2022-11-30T11:01:05.061Z,16.23
2022-11-30T11:06:21.435Z,16.08
2022-11-30T11:11:32.402Z,16.80
2022-11-30T11:16:49.563Z,17.58
2022-11-30T11:21:53.545Z,18.58
2022-11-30T11:26:57.032Z,20.48
2022-11-30T11:37:07.159Z,19.58
2022-11-30T11:42:17.752Z,20.83
2022-11-30T11:47:24.878Z,20.33
2022-11-30T11:52:28.563Z,19.27
2022-11-30T11:57:35.407Z,21.48
2022-11-30T12:02:39.138Z,19.70
2022-11-30T12:07:46.780Z,21.30
2022-11-30T12:12:53.459Z,23.02
2022-11-30T12:18:02.433Z,23.58
2022-11-30T12:23:13.533Z,24.45
2022-11-30T12:28:20.264Z,23.45
2022-11-30T12:33:28.042Z,21.77
2022-11-30T12:38:37.935Z,21.88
2022-11-30T12:43:45.161Z,24.33
2022-11-30T12:48:54.043Z,21.90
2022-11-30T12:54:01.423Z,22.55
2022-11-30T12:59:08.509Z,22.30
2022-11-30T13:04:15.301Z,22.08
2022-11-30T13:09:22.850Z,22.67
2022-11-30T13:14:26.711Z,24.77
2022-11-30T13:19:49.920Z,25.05
2022-11-30T13:24:58.671Z,26.33
2022-11-30T13:30:17.424Z,27.50
2022-11-30T13:35:37.900Z,28.73
2022-11-30T13:40:41.948Z,30.27
2022-11-30T13:45:44.332Z,31.88
2022-11-30T13:50:48.922Z,29.45
2022-11-30T13:55:54.882Z,29.10
2022-11-30T14:01:05.424Z,28.67
2022-11-30T14:06:32.670Z,28.08
2022-11-30T14:11:43.902Z,29.75
2022-11-30T14:16:46.321Z,27.70
2022-11-30T14:21:49.053Z,27.05
2022-11-30T14:26:53.212Z,28.17
2022-11-30T14:31:57.792Z,25.73
2022-11-30T14:37:02.148Z,25.80
2022-11-30T14:42:06.638Z,26.05
2022-11-30T14:47:16.115Z,25.90
2022-11-30T14:52:22.899Z,25.90
2022-11-30T14:57:30.414Z,27.55
2022-11-30T15:02:35.688Z,30.73
2022-11-30T15:07:38.442Z,30.42
2022-11-30T15:12:44.702Z,30.03
2022-11-30T15:17:51.784Z,31.60
2022-11-30T15:22:55.179Z,30.20
2022-11-30T15:27:59.774Z,30.40
2022-11-30T15:33:02.136Z,31.00
2022-11-30T15:38:08.699Z,30.10
2022-11-30T15:43:16.616Z,30.05
2022-11-30T15:48:27.604Z,30.95
2022-11-30T15:53:33.868Z,36.17
2022-11-30T15:58:46.044Z,39.30
2022-11-30T16:04:09.429Z,35.30
2022-11-30T16:09:19.164Z,36.95
2022-11-30T16:14:23.073Z,38.40
2022-11-30T16:19:25.444Z,38.25
2022-11-30T16:24:27.974Z,41.25
2022-11-30T16:29:31.736Z,40.85
2022-11-30T16:34:34.177Z,37.63
2022-11-30T16:39:36.572Z,40.50
2022-11-30T16:44:40.318Z,40.88
2022-11-30T16:49:42.704Z,41.30
2022-11-30T16:54:45.117Z,41.08
2022-11-30T16:59:49.036Z,39.95
2022-11-30T17:04:51.615Z,39.80
2022-11-30T17:09:54.075Z,43.00
2022-11-30T17:14:57.852Z,46.30
2022-11-30T17:20:00.235Z,40.58
2022-11-30T17:25:02.654Z,42.05
2022-11-30T17:30:07.372Z,40.33
2022-11-30T17:35:10.206Z,38.10
2022-11-30T17:40:15.286Z,38.67
2022-11-30T17:45:19.136Z,35.70
2022-11-30T17:50:21.523Z,38.17
2022-11-30T17:55:24.076Z,36.60
2022-11-30T18:00:27.982Z,37.75
2022-11-30T18:05:30.487Z,40.42
2022-11-30T18:10:33.373Z,39.28
2022-11-30T18:15:37.102Z,38.58
2022-11-30T18:20:39.527Z,35.90
2022-11-30T18:25:43.118Z,35.97
2022-11-30T18:35:49.198Z,34.80
2022-11-30T18:40:52.088Z,33.97
2022-11-30T18:45:54.548Z,36.47
2022-11-30T18:50:58.281Z,39.33
2022-11-30T18:56:07.702Z,51.17
2022-11-30T19:01:11.015Z,36.53
2022-11-30T19:06:14.837Z,33.92
2022-11-30T19:11:17.826Z,32.22
2022-11-30T19:16:20.273Z,34.95
2022-11-30T19:21:24.078Z,38.67
2022-11-30T19:26:27.976Z,36.42
2022-11-30T19:31:30.368Z,36.83
2022-11-30T19:36:34.138Z,39.22
2022-11-30T19:41:36.551Z,37.80
2022-11-30T19:46:40.602Z,36.50
2022-11-30T19:51:45.371Z,37.83
2022-11-30T19:56:47.747Z,36.25
2022-11-30T20:01:50.195Z,34.97
2022-11-30T20:06:53.974Z,33.13
2022-11-30T20:11:56.410Z,35.75
2022-11-30T20:16:58.830Z,33.75
2022-11-30T20:22:04.819Z,34.05
2022-11-30T20:27:07.271Z,36.05
2022-11-30T20:32:09.675Z,34.67
2022-11-30T20:37:13.440Z,36.25
2022-11-30T20:42:15.859Z,37.40
2022-11-30T20:47:18.275Z,36.97
2022-11-30T20:52:22.381Z,37.88
2022-11-30T20:57:24.853Z,36.70
2022-11-30T21:02:27.242Z,38.17
2022-11-30T21:07:31.062Z,36.60
2022-11-30T21:12:33.412Z,37.72
2022-11-30T21:17:35.805Z,37.88
2022-11-30T21:22:39.547Z,41.25
2022-11-30T21:27:41.951Z,39.13
2022-11-30T21:32:44.297Z,40.08
2022-11-30T21:37:48.025Z,40.33
2022-11-30T21:42:50.532Z,39.03
2022-11-30T21:47:52.930Z,38.95
2022-11-30T21:52:56.721Z,39.88
2022-11-30T21:57:59.126Z,39.97
2022-11-30T22:03:01.642Z,43.58
2022-11-30T22:08:05.798Z,43.33
2022-11-30T22:13:08.235Z,42.35
2022-11-30T22:18:10.618Z,42.25
2022-11-30T22:23:14.337Z,44.28
2022-11-30T22:28:16.728Z,46.95
2022-11-30T22:33:21.210Z,43.83
2022-11-30T22:38:24.967Z,44.47
2022-11-30T22:43:27.335Z,45.83
2022-11-30T22:48:30.013Z,44.00
2022-11-30T22:53:34.920Z,45.43
2022-11-30T22:58:37.310Z,46.25
2022-11-30T23:03:40.330Z,46.20
2022-11-30T23:08:44.873Z,44.60
2022-11-30T23:13:47.600Z,44.00
2022-11-30T23:18:51.585Z,42.93
2022-11-30T23:23:55.949Z,43.72
2022-11-30T23:29:00.090Z,43.35
2022-11-30T23:34:02.932Z,42.05
2022-11-30T23:39:08.493Z,47.03
2022-11-30T23:44:10.982Z,46.03
2022-11-30T23:49:13.497Z,45.35
2022-11-30T23:54:17.219Z,43.45
2022-11-30T23:59:19.662Z,43.88
